Time;durP1;ratioP1;P1;durP2;ratioP2;P2;SDS_P1;SDS_P2;PMS_P1;PMS_P2;Temp;Humidity;BMP_temperature;BMP_pressure;BME280_temperature;BME280_humidity;BME280_pressure;Samples;Min_cycle;Max_cycle;Signal;HPM_P1;HPM_P2
2021/06/16 00:00:23;;;;;;;20.07;17.43;;;18.10;93.90;;;;;;5000529;28;20334;-84
2021/06/16 00:03:13;;;;;;;22.10;17.23;;;18.00;94.50;;;;;;4995794;28;20210;-87
2021/06/16 00:05:43;;;;;;;24.40;18.30;;;17.90;95.50;;;;;;4994220;28;20215;-83
2021/06/16 00:08:12;;;;;;;20.60;16.90;;;17.80;96.30;;;;;;5003417;28;20262;-81
2021/06/16 00:10:41;;;;;;;23.17;16.70;;;17.80;97.20;;;;;;5011036;28;20265;-82
2021/06/16 00:13:10;;;;;;;21.30;17.47;;;17.70;98.30;;;;;;5000983;28;20293;-83
2021/06/16 00:15:41;;;;;;;20.87;17.13;;;17.60;99.40;;;;;;5015622;28;20206;-84
2021/06/16 00:18:10;;;;;;;23.60;17.70;;;17.50;99.90;;;;;;5016714;28;20192;-84
2021/06/16 00:20:40;;;;;;;20.40;17.63;;;17.50;99.90;;;;;;5007684;28;20235;-83
2021/06/16 00:23:09;;;;;;;19.80;17.67;;;17.40;99.90;;;;;;5000659;28;20572;-84
2021/06/16 00:25:38;;;;;;;21.50;17.83;;;17.40;99.90;;;;;;5007770;28;20937;-85
2021/06/16 00:28:07;;;;;;;21.27;17.67;;;17.40;99.90;;;;;;5003569;28;20214;-82
2021/06/16 00:30:36;;;;;;;22.00;17.20;;;17.30;99.90;;;;;;5003426;28;20302;-83
2021/06/16 00:33:05;;;;;;;20.70;18.50;;;17.30;99.90;;;;;;5005434;28;20216;-84
2021/06/16 00:35:34;;;;;;;22.33;18.57;;;17.20;99.90;;;;;;5006064;28;20203;-83
2021/06/16 00:38:04;;;;;;;22.90;19.03;;;17.10;99.90;;;;;;4994353;28;20215;-86
2021/06/16 00:40:32;;;;;;;19.90;17.80;;;17.10;99.90;;;;;;4995644;28;20226;-83
2021/06/16 00:43:03;;;;;;;26.10;19.70;;;17.00;99.90;;;;;;4992810;28;20658;-84
2021/06/16 00:45:32;;;;;;;22.40;18.03;;;17.00;99.90;;;;;;4997984;28;20208;-84
2021/06/16 00:48:01;;;;;;;22.23;17.73;;;17.00;99.90;;;;;;5012826;28;20195;-84
2021/06/16 00:50:32;;;;;;;21.80;18.37;;;17.00;99.90;;;;;;5008315;28;20203;-83
2021/06/16 00:53:01;;;;;;;20.87;18.63;;;16.90;99.90;;;;;;5004478;28;20211;-83
2021/06/16 00:55:31;;;;;;;18.97;16.93;;;16.80;99.90;;;;;;5001607;28;20191;-84
2021/06/16 00:58:00;;;;;;;22.00;17.37;;;16.80;99.90;;;;;;4990459;28;20207;-82
2021/06/16 01:00:32;;;;;;;20.57;17.80;;;16.70;99.90;;;;;;4997737;28;20239;-82
2021/06/16 01:03:06;;;;;;;18.87;16.97;;;16.70;99.90;;;;;;5015057;28;20578;-84
2021/06/16 01:05:40;;;;;;;18.10;16.17;;;16.60;99.90;;;;;;5019740;28;20556;-83
2021/06/16 01:08:12;;;;;;;17.63;15.73;;;16.60;99.90;;;;;;5011817;28;20208;-83
2021/06/16 01:10:46;;;;;;;17.73;15.63;;;16.60;99.90;;;;;;5012358;28;20216;-82
2021/06/16 01:13:23;;;;;;;20.87;16.03;;;16.50;99.90;;;;;;5013051;28;20214;-83
2021/06/16 01:16:01;;;;;;;16.20;14.63;;;16.50;99.90;;;;;;5001453;28;20972;-83
2021/06/16 01:18:41;;;;;;;17.17;15.47;;;16.50;99.90;;;;;;4994836;28;20298;-84
2021/06/16 01:21:10;;;;;;;16.77;14.63;;;16.40;99.90;;;;;;4993888;28;20247;-83
2021/06/16 01:24:02;;;;;;;17.67;14.33;;;16.40;99.90;;;;;;4995531;28;20214;-83
2021/06/16 01:26:34;;;;;;;15.23;13.37;;;16.30;99.90;;;;;;4993483;28;20261;-84
2021/06/16 01:29:10;;;;;;;15.27;12.30;;;16.30;99.90;;;;;;4995784;28;20203;-84
2021/06/16 01:31:41;;;;;;;13.47;11.37;;;16.30;99.60;;;;;;4997735;28;20221;-86
2021/06/16 01:34:12;;;;;;;13.10;10.20;;;16.40;98.30;;;;;;5010770;28;20222;-82
2021/06/16 01:36:43;;;;;;;10.80;9.70;;;16.30;97.00;;;;;;5011095;28;20560;-84
2021/06/16 01:39:15;;;;;;;11.10;9.60;;;16.20;95.90;;;;;;4992863;28;20221;-82
2021/06/16 01:41:47;;;;;;;11.47;9.30;;;16.20;95.50;;;;;;5001120;28;20234;-82
2021/06/16 01:44:20;;;;;;;10.43;8.77;;;16.20;94.60;;;;;;5002748;28;20203;-82
2021/06/16 01:46:52;;;;;;;9.80;8.87;;;16.10;94.60;;;;;;4992674;28;20211;-86
2021/06/16 01:49:25;;;;;;;10.27;9.20;;;16.10;93.90;;;;;;4992501;28;20853;-85
2021/06/16 01:51:55;;;;;;;10.23;8.00;;;16.10;93.90;;;;;;4996220;28;20211;-82
2021/06/16 01:54:25;;;;;;;9.80;8.00;;;16.00;93.70;;;;;;4996197;28;20229;-82
2021/06/16 01:56:57;;;;;;;9.33;8.30;;;16.00;93.50;;;;;;4996251;28;20233;-85
2021/06/16 01:59:27;;;;;;;9.43;8.10;;;16.00;93.70;;;;;;4986357;28;20219;-83
2021/06/16 02:01:57;;;;;;;9.33;7.90;;;15.90;93.90;;;;;;4991986;28;20820;-83
2021/06/16 02:04:25;;;;;;;8.80;7.90;;;15.80;93.90;;;;;;4998963;28;20212;-83
2021/06/16 02:07:02;;;;;;;11.10;7.90;;;15.80;93.80;;;;;;4988660;28;20661;-83
2021/06/16 02:09:34;;;;;;;10.27;7.63;;;15.80;93.50;;;;;;4997463;28;20214;-84
2021/06/16 02:12:09;;;;;;;10.00;7.77;;;15.70;93.40;;;;;;4992836;28;20245;-83
2021/06/16 02:14:40;;;;;;;8.43;7.17;;;15.70;93.20;;;;;;4976853;28;20710;-83
2021/06/16 02:17:11;;;;;;;8.17;6.93;;;15.70;93.00;;;;;;4989673;28;20219;-84
2021/06/16 02:19:43;;;;;;;7.97;7.17;;;15.70;92.40;;;;;;4991731;28;20203;-83
2021/06/16 02:22:11;;;;;;;8.03;6.80;;;15.70;92.60;;;;;;4995449;28;20237;-83
2021/06/16 02:24:41;;;;;;;9.57;7.70;;;15.70;92.70;;;;;;4995139;28;20208;-86
2021/06/16 02:27:11;;;;;;;11.03;8.40;;;15.70;93.30;;;;;;4989385;28;20211;-85
2021/06/16 02:29:40;;;;;;;10.90;8.67;;;15.60;94.10;;;;;;4996047;28;20208;-84
2021/06/16 02:32:09;;;;;;;12.63;9.27;;;15.60;95.20;;;;;;4990512;28;20207;-83
2021/06/16 02:34:38;;;;;;;11.27;9.97;;;15.60;96.40;;;;;;4995667;28;20220;-85
2021/06/16 02:37:10;;;;;;;12.10;9.90;;;15.60;98.30;;;;;;4988683;28;20216;-84
2021/06/16 02:39:43;;;;;;;13.77;10.17;;;15.70;98.70;;;;;;4995416;28;20247;-85
2021/06/16 02:42:14;;;;;;;10.50;9.47;;;15.70;98.60;;;;;;4993434;28;20238;-83
2021/06/16 02:44:43;;;;;;;8.90;7.63;;;15.70;98.00;;;;;;4988540;28;20219;-85
2021/06/16 02:47:14;;;;;;;8.93;8.03;;;15.70;95.70;;;;;;4990392;28;20246;-85
2021/06/16 02:49:50;;;;;;;11.07;8.30;;;15.70;94.30;;;;;;4992037;28;20254;-83
2021/06/16 02:52:21;;;;;;;7.60;6.80;;;15.70;93.60;;;;;;4993106;28;20834;-85
2021/06/16 02:54:56;;;;;;;8.83;6.27;;;15.70;92.10;;;;;;4994930;28;20247;-84
2021/06/16 02:57:28;;;;;;;8.13;6.87;;;15.60;91.80;;;;;;4999329;28;20226;-86
2021/06/16 02:59:58;;;;;;;9.37;5.50;;;15.60;91.60;;;;;;5005096;28;20272;-82
2021/06/16 03:02:28;;;;;;;5.93;4.77;;;15.60;90.70;;;;;;4996076;28;20227;-86
2021/06/16 03:04:58;;;;;;;6.77;5.27;;;15.60;90.40;;;;;;4995303;28;20195;-83
2021/06/16 03:07:29;;;;;;;6.63;4.60;;;15.60;90.30;;;;;;5010548;28;20214;-83
2021/06/16 03:10:00;;;;;;;5.47;3.93;;;15.60;89.60;;;;;;5011981;28;20204;-82
2021/06/16 03:12:32;;;;;;;6.63;3.83;;;15.60;88.00;;;;;;5014187;28;20771;-83
2021/06/16 03:15:05;;;;;;;6.07;3.67;;;15.60;87.40;;;;;;4996671;28;20230;-85
2021/06/16 03:17:35;;;;;;;3.47;3.10;;;15.60;87.30;;;;;;4993641;28;20496;-84
2021/06/16 03:20:07;;;;;;;5.40;2.97;;;15.60;86.40;;;;;;4989333;28;20401;-83
2021/06/16 03:22:38;;;;;;;4.17;3.10;;;15.50;85.50;;;;;;4996213;28;20700;-85
2021/06/16 03:25:09;;;;;;;7.17;3.00;;;15.50;85.50;;;;;;4993739;28;20291;-84
2021/06/16 03:27:39;;;;;;;3.90;2.70;;;15.60;85.40;;;;;;4991538;28;20210;-83
2021/06/16 03:30:09;;;;;;;6.27;3.00;;;15.50;85.00;;;;;;4994189;28;20682;-84
2021/06/16 03:32:39;;;;;;;5.37;2.80;;;15.50;85.20;;;;;;4992705;28;20672;-85
2021/06/16 03:35:08;;;;;;;3.33;2.20;;;15.50;84.80;;;;;;4996405;28;20669;-83
2021/06/16 03:37:38;;;;;;;4.17;2.67;;;15.50;85.00;;;;;;4992988;28;20197;-84
2021/06/16 03:40:08;;;;;;;4.67;2.50;;;15.50;84.80;;;;;;4992818;28;20211;-83
2021/06/16 03:42:39;;;;;;;4.40;2.87;;;15.50;84.90;;;;;;4999914;28;20314;-84
2021/06/16 03:45:10;;;;;;;4.33;2.87;;;15.60;84.80;;;;;;4995279;28;20302;-85
2021/06/16 03:47:43;;;;;;;6.70;3.10;;;15.60;84.80;;;;;;4991131;28;20266;-84
2021/06/16 03:50:16;;;;;;;5.13;3.23;;;15.60;84.90;;;;;;5011922;28;20207;-82
2021/06/16 03:52:45;;;;;;;3.63;2.60;;;15.60;84.90;;;;;;5013052;28;20261;-84
2021/06/16 03:55:17;;;;;;;4.00;2.60;;;15.60;85.00;;;;;;5022847;28;20206;-83
2021/06/16 03:57:48;;;;;;;3.97;2.77;;;15.60;85.00;;;;;;5020963;28;20203;-83
2021/06/16 04:00:18;;;;;;;7.07;2.87;;;15.60;85.10;;;;;;5028299;28;20195;-85
2021/06/16 04:02:48;;;;;;;6.00;3.10;;;15.60;85.50;;;;;;5023933;28;20211;-83
2021/06/16 04:05:17;;;;;;;3.93;3.30;;;15.60;85.40;;;;;;5020007;28;20210;-85
2021/06/16 04:07:51;;;;;;;4.10;2.97;;;15.70;85.40;;;;;;4984567;28;20211;-85
2021/06/16 04:10:24;;;;;;;3.80;3.13;;;15.80;85.30;;;;;;5007244;28;20191;-83
2021/06/16 04:12:54;;;;;;;3.07;2.80;;;15.60;85.20;;;;;;5007882;28;20644;-83
2021/06/16 04:15:23;;;;;;;4.40;3.13;;;15.80;85.20;;;;;;5002761;28;20764;-83
2021/06/16 04:17:53;;;;;;;3.60;2.80;;;15.70;85.60;;;;;;5001953;28;20211;-84
2021/06/16 04:20:22;;;;;;;6.00;2.90;;;15.80;85.50;;;;;;5003555;28;20210;-81
2021/06/16 04:22:51;;;;;;;4.57;2.97;;;15.80;85.80;;;;;;4993408;28;20238;-83
2021/06/16 04:25:20;;;;;;;4.47;2.93;;;15.80;85.40;;;;;;5001713;28;20212;-83
2021/06/16 04:27:48;;;;;;;3.93;2.70;;;15.80;85.60;;;;;;4996453;28;20248;-85
2021/06/16 04:30:20;;;;;;;4.20;2.53;;;15.90;85.50;;;;;;4999784;28;20779;-83
2021/06/16 04:32:49;;;;;;;5.50;2.90;;;15.90;85.20;;;;;;5004505;28;20214;-85
2021/06/16 04:35:19;;;;;;;6.63;2.73;;;15.90;85.40;;;;;;5007072;28;20234;-83
2021/06/16 04:37:48;;;;;;;4.30;3.00;;;15.90;85.60;;;;;;5001018;28;20203;-82
2021/06/16 04:40:17;;;;;;;7.23;2.80;;;16.10;85.40;;;;;;4992767;28;20281;-83
2021/06/16 04:42:46;;;;;;;6.00;3.57;;;16.20;85.20;;;;;;5006966;28;20219;-82
2021/06/16 04:45:15;;;;;;;6.47;3.23;;;16.20;85.40;;;;;;4985296;28;20207;-83
2021/06/16 04:47:45;;;;;;;4.67;3.00;;;16.20;85.50;;;;;;4987516;28;20245;-84
2021/06/16 04:50:15;;;;;;;6.80;3.27;;;16.40;85.70;;;;;;4992831;28;20218;-81
2021/06/16 04:52:44;;;;;;;5.60;2.90;;;16.40;85.40;;;;;;4994686;28;20204;-83
2021/06/16 04:55:15;;;;;;;7.00;2.83;;;16.40;85.20;;;;;;4992333;28;20249;-83
2021/06/16 04:57:43;;;;;;;5.87;3.07;;;16.50;85.40;;;;;;4988893;28;20573;-83
2021/06/16 05:00:13;;;;;;;6.57;2.93;;;16.50;85.10;;;;;;4984920;28;20208;-83
2021/06/16 05:02:42;;;;;;;3.67;3.10;;;16.40;85.40;;;;;;4999548;28;21265;-83
2021/06/16 05:05:13;;;;;;;2.83;2.47;;;16.70;85.00;;;;;;4992013;28;20658;-82
2021/06/16 05:07:41;;;;;;;3.93;2.70;;;16.70;85.00;;;;;;4995107;28;20216;-82
2021/06/16 05:10:11;;;;;;;3.07;2.60;;;16.60;85.10;;;;;;4991502;28;20213;-82
2021/06/16 05:12:41;;;;;;;3.67;3.20;;;16.50;85.10;;;;;;4982375;28;20791;-85
2021/06/16 05:15:15;;;;;;;5.33;2.93;;;16.40;85.10;;;;;;4989963;28;20640;-81
2021/06/16 05:17:44;;;;;;;7.50;3.03;;;16.40;85.40;;;;;;4984578;28;20212;-83
2021/06/16 05:20:15;;;;;;;4.20;2.83;;;16.30;85.70;;;;;;4988546;28;20219;-84
2021/06/16 05:22:48;;;;;;;4.53;2.90;;;16.40;86.20;;;;;;4985722;28;20789;-84
2021/06/16 05:25:18;;;;;;;4.73;2.90;;;16.60;85.70;;;;;;4990778;28;20345;-83
2021/06/16 05:27:47;;;;;;;5.47;2.93;;;16.90;85.50;;;;;;5004877;28;20230;-82
2021/06/16 05:30:19;;;;;;;4.67;2.70;;;17.10;85.30;;;;;;4987737;28;20326;-85
2021/06/16 05:32:48;;;;;;;4.73;3.00;;;17.20;85.00;;;;;;5001139;28;20223;-82
2021/06/16 05:35:18;;;;;;;5.57;2.97;;;17.20;85.10;;;;;;4988985;28;20200;-82
2021/06/16 05:37:48;;;;;;;4.63;2.73;;;17.40;84.70;;;;;;4992325;28;20207;-81
2021/06/16 05:40:18;;;;;;;4.97;2.70;;;17.60;84.90;;;;;;4980391;28;20207;-81
2021/06/16 05:42:46;;;;;;;5.67;2.87;;;17.80;84.60;;;;;;4988740;28;20231;-83
2021/06/16 05:45:18;;;;;;;4.57;2.93;;;17.80;84.30;;;;;;4986646;28;20276;-85
2021/06/16 05:47:49;;;;;;;4.53;2.67;;;17.80;84.80;;;;;;4981786;28;20208;-85
2021/06/16 05:50:19;;;;;;;4.43;2.97;;;18.00;84.90;;;;;;4981835;28;20197;-84
2021/06/16 05:52:48;;;;;;;4.30;2.80;;;18.10;84.60;;;;;;4987266;28;20617;-84
2021/06/16 05:55:16;;;;;;;3.23;2.80;;;18.20;84.30;;;;;;4995134;28;20272;-84
2021/06/16 05:57:45;;;;;;;4.47;3.03;;;18.10;84.00;;;;;;4982321;28;20207;-86
2021/06/16 06:00:15;;;;;;;5.30;2.73;;;18.20;84.30;;;;;;4983713;28;20199;-82
2021/06/16 06:02:45;;;;;;;5.23;3.13;;;18.20;84.10;;;;;;4984655;28;20207;-84
2021/06/16 06:05:15;;;;;;;4.60;3.17;;;18.10;84.20;;;;;;5000044;28;20211;-83
2021/06/16 06:07:45;;;;;;;4.70;3.07;;;18.10;84.10;;;;;;4988301;28;20208;-86
2021/06/16 06:10:14;;;;;;;7.13;2.80;;;18.10;84.10;;;;;;4986185;28;20481;-84
2021/06/16 06:12:43;;;;;;;6.93;3.50;;;18.00;84.00;;;;;;4980191;28;20560;-82
2021/06/16 06:15:12;;;;;;;10.53;3.10;;;18.00;84.30;;;;;;4989340;28;20219;-85
2021/06/16 06:17:41;;;;;;;5.03;3.00;;;18.10;84.20;;;;;;4974019;28;20659;-87
2021/06/16 06:20:12;;;;;;;6.07;2.90;;;18.20;84.10;;;;;;4986294;28;20204;-84
2021/06/16 06:22:41;;;;;;;4.93;3.23;;;18.30;84.00;;;;;;4972067;28;20204;-83
2021/06/16 06:25:13;;;;;;;4.50;2.93;;;18.30;83.80;;;;;;5002593;28;20206;-87
2021/06/16 06:27:48;;;;;;;4.77;2.77;;;18.30;84.00;;;;;;4988597;28;20203;-87
2021/06/16 06:30:17;;;;;;;6.27;2.80;;;18.60;83.90;;;;;;4991122;28;20200;-84
2021/06/16 06:32:46;;;;;;;6.57;2.90;;;18.70;83.70;;;;;;4984278;28;20242;-88
2021/06/16 06:35:15;;;;;;;4.27;2.73;;;18.70;83.70;;;;;;4995277;28;20641;-84
2021/06/16 06:37:45;;;;;;;6.53;2.70;;;19.00;83.60;;;;;;4962865;28;20220;-86
2021/06/16 06:40:16;;;;;;;6.33;2.90;;;18.90;83.10;;;;;;5003587;28;20629;-85
2021/06/16 06:42:45;;;;;;;6.63;3.30;;;19.00;83.30;;;;;;4999758;28;20250;-85
2021/06/16 06:45:14;;;;;;;9.90;3.20;;;19.10;83.50;;;;;;4995017;28;20238;-84
2021/06/16 06:47:43;;;;;;;5.57;2.83;;;19.20;82.70;;;;;;4985282;28;20195;-84
2021/06/16 06:50:14;;;;;;;3.93;2.60;;;19.20;83.10;;;;;;4979196;28;20211;-83
2021/06/16 06:52:45;;;;;;;5.67;3.07;;;19.40;82.90;;;;;;4975790;28;20885;-83
2021/06/16 06:55:16;;;;;;;5.77;3.00;;;19.60;82.50;;;;;;4984989;28;20628;-83
2021/06/16 06:57:45;;;;;;;6.70;3.10;;;19.50;82.30;;;;;;4972064;28;20470;-86
2021/06/16 07:00:15;;;;;;;4.93;2.70;;;19.50;82.40;;;;;;4993464;28;20410;-83
2021/06/16 07:02:45;;;;;;;4.23;2.70;;;19.70;82.40;;;;;;4986367;28;20456;-84
2021/06/16 07:05:16;;;;;;;5.87;2.80;;;19.80;82.40;;;;;;4974159;28;20625;-85
2021/06/16 07:07:45;;;;;;;3.90;2.50;;;19.80;81.80;;;;;;4973205;28;20231;-85
2021/06/16 07:10:16;;;;;;;2.83;2.63;;;19.80;81.60;;;;;;4989710;28;20203;-82
2021/06/16 07:12:46;;;;;;;6.47;2.80;;;19.70;81.60;;;;;;4986404;28;20805;-84
2021/06/16 07:15:15;;;;;;;6.00;2.80;;;19.90;82.00;;;;;;4991734;28;20275;-83
2021/06/16 07:17:48;;;;;;;4.10;2.60;;;20.10;81.90;;;;;;4958746;28;20208;-84
2021/06/16 07:20:19;;;;;;;3.67;2.60;;;20.40;81.00;;;;;;4985503;28;20530;-83
2021/06/16 07:22:48;;;;;;;6.27;2.77;;;20.40;81.00;;;;;;4949876;28;20326;-86
2021/06/16 07:25:19;;;;;;;3.88;2.53;;;20.70;80.70;;;;;;4972101;28;20227;-85
2021/06/16 07:27:49;;;;;;;6.70;2.70;;;21.00;80.50;;;;;;4971464;28;20512;-85
2021/06/16 07:30:19;;;;;;;6.20;2.40;;;21.40;80.40;;;;;;4975275;28;20599;-84
2021/06/16 07:32:48;;;;;;;4.15;2.38;;;21.30;79.80;;;;;;4968726;28;134727;-84
2021/06/16 07:35:17;;;;;;;4.22;2.20;;;21.30;79.80;;;;;;4952039;28;20697;-82
2021/06/16 07:37:46;;;;;;;4.90;2.35;;;21.30;79.90;;;;;;4979723;28;20388;-83
2021/06/16 07:40:18;;;;;;;3.38;2.85;;;21.20;79.70;;;;;;4978339;28;20418;-86
2021/06/16 07:42:47;;;;;;;5.95;2.95;;;21.10;80.10;;;;;;4973982;28;20285;-84
2021/06/16 07:45:16;;;;;;;4.90;2.70;;;21.20;79.90;;;;;;4976441;28;21078;-83
2021/06/16 07:47:44;;;;;;;6.23;2.87;;;21.30;80.40;;;;;;4990211;28;20281;-85
2021/06/16 07:50:14;;;;;;;4.82;2.70;;;21.50;79.50;;;;;;4990176;28;20196;-84
2021/06/16 07:52:43;;;;;;;3.13;2.60;;;21.60;79.80;;;;;;4976519;28;20214;-83
2021/06/16 07:55:12;;;;;;;4.07;2.42;;;21.50;79.40;;;;;;4969073;28;20226;-84
2021/06/16 07:57:43;;;;;;;3.38;2.20;;;21.50;79.20;;;;;;4979063;28;20246;-85
2021/06/16 08:00:13;;;;;;;4.47;2.30;;;21.50;79.70;;;;;;4940857;28;20862;-85
2021/06/16 08:02:43;;;;;;;6.05;2.75;;;21.70;79.80;;;;;;4956294;28;20229;-83
2021/06/16 08:05:14;;;;;;;3.40;2.42;;;21.60;78.50;;;;;;4961346;28;20233;-86
2021/06/16 08:07:43;;;;;;;6.18;2.50;;;21.50;78.50;;;;;;4986482;28;20196;-83
2021/06/16 08:10:13;;;;;;;4.53;2.70;;;21.40;78.80;;;;;;4958922;28;20212;-85
2021/06/16 08:12:43;;;;;;;3.93;2.60;;;21.20;79.10;;;;;;4951488;28;20450;-84
2021/06/16 08:15:13;;;;;;;6.07;2.63;;;21.00;79.30;;;;;;4972160;28;20892;-84
2021/06/16 08:17:42;;;;;;;7.50;2.70;;;21.10;79.50;;;;;;4992971;28;20207;-85
2021/06/16 08:20:12;;;;;;;5.27;2.27;;;21.10;79.50;;;;;;4980774;28;20208;-85
2021/06/16 08:22:42;;;;;;;4.60;2.70;;;20.90;79.50;;;;;;4973687;28;20204;-84
2021/06/16 08:25:12;;;;;;;5.13;2.70;;;20.90;79.40;;;;;;4994990;28;20445;-84
2021/06/16 08:27:43;;;;;;;3.50;2.50;;;21.10;79.00;;;;;;4967672;28;20209;-84
2021/06/16 08:30:14;;;;;;;4.63;2.27;;;21.20;78.80;;;;;;4968446;28;21039;-83
2021/06/16 08:32:44;;;;;;;4.63;2.43;;;21.30;78.70;;;;;;4958003;28;20208;-85
2021/06/16 08:35:14;;;;;;;4.00;2.70;;;21.50;78.80;;;;;;4973905;28;20221;-85
2021/06/16 08:37:46;;;;;;;4.88;2.35;;;21.80;77.90;;;;;;4952823;28;20211;-84
2021/06/16 08:40:17;;;;;;;3.83;2.35;;;21.90;77.00;;;;;;4970392;28;20575;-85
2021/06/16 08:42:49;;;;;;;2.75;2.20;;;22.10;76.80;;;;;;4975373;28;21130;-86
2021/06/16 08:45:20;;;;;;;3.67;2.38;;;22.00;76.80;;;;;;4985445;28;20216;-87
2021/06/16 08:47:50;;;;;;;4.90;2.30;;;22.00;75.50;;;;;;4968673;28;20694;-85
2021/06/16 08:50:23;;;;;;;5.10;2.30;;;21.80;75.60;;;;;;4971264;28;20851;-89
2021/06/16 08:52:52;;;;;;;3.22;2.17;;;21.70;75.20;;;;;;4970175;28;20200;-83
2021/06/16 08:55:23;;;;;;;2.35;2.10;;;21.90;75.50;;;;;;4948550;28;20457;-83
2021/06/16 08:57:54;;;;;;;5.40;2.53;;;22.10;75.60;;;;;;4944992;28;20811;-86
2021/06/16 09:00:24;;;;;;;3.78;2.25;;;22.30;75.80;;;;;;4971342;28;20207;-84
2021/06/16 09:02:53;;;;;;;4.65;2.30;;;22.40;74.80;;;;;;4970042;28;20211;-87
2021/06/16 09:05:37;;;;;;;4.13;2.25;;;22.30;73.90;;;;;;4964231;28;21513;-83
2021/06/16 09:08:18;;;;;;;4.85;2.10;;;22.20;73.60;;;;;;4965488;28;20231;-84
2021/06/16 09:10:49;;;;;;;3.38;2.13;;;22.30;73.70;;;;;;4970743;28;20203;-85
2021/06/16 09:13:27;;;;;;;5.10;2.00;;;22.40;73.90;;;;;;4977475;28;20989;-82
2021/06/16 09:15:57;;;;;;;6.80;2.20;;;22.40;73.70;;;;;;4973686;28;20706;-83
2021/06/16 09:18:26;;;;;;;6.72;2.40;;;22.30;73.00;;;;;;4968882;28;20818;-85
2021/06/16 09:20:57;;;;;;;4.22;2.30;;;22.50;73.10;;;;;;4968995;28;20916;-83
2021/06/16 09:23:28;;;;;;;6.65;2.40;;;22.50;73.40;;;;;;4963208;28;20390;-82
2021/06/16 09:26:08;;;;;;;3.33;2.10;;;22.50;73.20;;;;;;4970889;28;20231;-81
2021/06/16 09:28:40;;;;;;;5.70;2.28;;;22.60;73.00;;;;;;4971405;28;20773;-82
2021/06/16 09:31:11;;;;;;;2.95;2.65;;;22.70;73.30;;;;;;4966425;28;20744;-84
2021/06/16 09:33:41;;;;;;;4.22;2.50;;;22.70;72.10;;;;;;4964168;28;20286;-84
2021/06/16 09:36:14;;;;;;;5.15;2.70;;;22.70;72.30;;;;;;4983041;28;21032;-83
2021/06/16 09:38:46;;;;;;;9.07;2.75;;;22.70;72.80;;;;;;4977246;28;20230;-81
2021/06/16 09:41:18;;;;;;;3.60;2.53;;;22.60;72.60;;;;;;4983344;28;20199;-84
2021/06/16 09:43:54;;;;;;;4.25;2.35;;;22.70;73.80;;;;;;4969543;28;20211;-83
2021/06/16 09:46:22;;;;;;;3.17;2.42;;;22.70;73.10;;;;;;4975246;28;20440;-83
2021/06/16 09:48:51;;;;;;;4.78;3.00;;;22.70;72.80;;;;;;4991221;28;20208;-84
2021/06/16 09:51:26;;;;;;;4.07;3.13;;;22.60;72.50;;;;;;4965000;28;20947;-83
2021/06/16 09:54:13;;;;;;;5.00;2.92;;;22.60;73.10;;;;;;4967455;28;20246;-83
2021/06/16 09:56:44;;;;;;;3.97;3.10;;;22.60;73.30;;;;;;4980870;28;20203;-81
2021/06/16 09:59:34;;;;;;;5.22;2.88;;;22.60;72.90;;;;;;4989543;28;21112;-81
2021/06/16 10:02:02;;;;;;;5.07;2.92;;;22.70;73.30;;;;;;4984791;28;20473;-82
2021/06/16 10:04:42;;;;;;;4.30;3.15;;;22.90;73.40;;;;;;4970403;28;20526;-82
2021/06/16 10:07:16;;;;;;;4.40;2.97;;;23.00;73.70;;;;;;4966203;28;20395;-82
2021/06/16 10:09:50;;;;;;;4.60;3.17;;;23.10;73.40;;;;;;4978075;28;20269;-82
2021/06/16 10:12:20;;;;;;;5.75;3.78;;;23.10;73.80;;;;;;4993407;28;20214;-81
2021/06/16 10:14:51;;;;;;;6.85;3.05;;;23.10;74.10;;;;;;4968809;28;20282;-84
2021/06/16 10:17:20;;;;;;;4.10;3.20;;;23.10;74.30;;;;;;4965530;28;20212;-81
2021/06/16 10:19:49;;;;;;;6.40;3.72;;;23.10;73.70;;;;;;4972773;28;20218;-80
2021/06/16 10:22:19;;;;;;;7.55;3.70;;;23.00;74.10;;;;;;4960605;28;20322;-82
2021/06/16 10:24:48;;;;;;;5.50;3.65;;;22.90;74.20;;;;;;4963733;28;21167;-82
2021/06/16 10:27:19;;;;;;;6.68;3.30;;;22.80;73.90;;;;;;4962559;28;21116;-86
2021/06/16 10:29:52;;;;;;;5.35;3.63;;;22.80;74.40;;;;;;4973986;28;20215;-83
2021/06/16 10:32:21;;;;;;;6.50;3.80;;;23.00;74.40;;;;;;4957197;28;20204;-82
2021/06/16 10:35:02;;;;;;;5.22;3.03;;;23.00;74.20;;;;;;4967948;28;20812;-82
2021/06/16 10:37:34;;;;;;;6.15;4.20;;;22.90;74.70;;;;;;4968980;28;20510;-83
2021/06/16 10:40:47;;;;;;;8.25;4.18;;;22.90;74.70;;;;;;4964345;28;20506;-83
2021/06/16 10:43:28;;;;;;;6.75;3.92;;;22.80;74.30;;;;;;4957731;28;21302;-85
2021/06/16 10:46:17;;;;;;;6.35;4.15;;;22.90;74.30;;;;;;4978691;28;20226;-84
2021/06/16 10:48:53;;;;;;;6.95;4.20;;;23.00;75.00;;;;;;4984938;28;20199;-85
2021/06/16 10:51:42;;;;;;;6.53;4.13;;;23.10;74.70;;;;;;4988164;28;20219;-87
2021/06/16 10:54:21;;;;;;;8.73;4.00;;;23.10;75.00;;;;;;4987962;28;20207;-86
2021/06/16 10:56:56;;;;;;;8.77;4.93;;;23.10;75.10;;;;;;4973572;28;20208;-86
2021/06/16 11:00:09;;;;;;;8.65;4.70;;;23.20;75.50;;;;;;4973388;28;20211;-86
2021/06/16 11:03:08;;;;;;;5.25;4.38;;;23.30;75.00;;;;;;4910652;28;20217;-88
2021/06/16 11:05:44;;;;;;;7.28;4.63;;;23.30;75.50;;;;;;4978990;28;20273;-85
2021/06/16 11:08:53;;;;;;;5.25;4.43;;;23.30;75.60;;;;;;4969984;28;20214;-83
2021/06/16 11:11:24;;;;;;;6.70;4.40;;;23.00;74.30;;;;;;4965302;28;20199;-83
2021/06/16 11:13:53;;;;;;;6.45;4.65;;;22.80;75.00;;;;;;4974064;28;20862;-81
2021/06/16 11:16:45;;;;;;;5.75;4.32;;;22.90;74.90;;;;;;4949862;28;20303;-83
2021/06/16 11:19:24;;;;;;;8.80;4.70;;;23.10;74.60;;;;;;4971667;28;20234;-81
2021/06/16 11:21:54;;;;;;;6.47;4.72;;;23.10;74.50;;;;;;4966708;28;20616;-82
2021/06/16 11:24:23;;;;;;;5.82;4.50;;;23.20;74.90;;;;;;4974576;28;20694;-85
2021/06/16 11:26:52;;;;;;;8.65;4.75;;;23.10;74.90;;;;;;4981294;28;20477;-86
2021/06/16 11:29:57;;;;;;;5.88;4.50;;;23.00;74.70;;;;;;4980025;28;20222;-81
2021/06/16 11:32:26;;;;;;;5.53;4.45;;;23.20;75.00;;;;;;4980845;28;20933;-84
2021/06/16 11:34:58;;;;;;;7.53;4.40;;;23.30;74.70;;;;;;4982013;28;20220;-86
2021/06/16 11:38:02;;;;;;;9.48;4.55;;;23.40;74.80;;;;;;4959352;28;20207;-86
2021/06/16 11:40:32;;;;;;;6.38;4.15;;;23.30;75.40;;;;;;4952676;28;20261;-83
2021/06/16 11:43:01;;;;;;;6.93;4.45;;;23.40;75.00;;;;;;4962365;28;21135;-85
2021/06/16 11:45:32;;;;;;;7.63;4.80;;;23.30;74.60;;;;;;4972075;28;20413;-83
2021/06/16 11:48:02;;;;;;;7.82;4.10;;;23.30;74.40;;;;;;4973147;28;20231;-84
2021/06/16 11:50:34;;;;;;;6.22;4.57;;;23.30;75.10;;;;;;4975558;28;20496;-83
2021/06/16 11:53:05;;;;;;;5.20;4.60;;;23.40;75.10;;;;;;4976142;28;20211;-84
2021/06/16 11:55:44;;;;;;;9.13;4.82;;;23.50;74.60;;;;;;4976925;28;20207;-84
2021/06/16 11:58:28;;;;;;;5.28;3.97;;;23.50;74.60;;;;;;4970975;28;20977;-83
2021/06/16 12:01:08;;;;;;;8.77;4.28;;;23.50;74.70;;;;;;4954129;28;20529;-84
2021/06/16 12:03:38;;;;;;;5.40;4.60;;;23.70;74.60;;;;;;4971240;28;20242;-83
2021/06/16 12:06:10;;;;;;;5.20;4.05;;;23.80;74.00;;;;;;4979609;28;20591;-84
2021/06/16 12:08:41;;;;;;;7.50;4.50;;;23.90;74.60;;;;;;4960887;28;20501;-85
2021/06/16 12:11:21;;;;;;;7.47;4.55;;;24.10;74.20;;;;;;4957915;28;20211;-84
2021/06/16 12:14:01;;;;;;;5.90;5.30;;;24.30;74.00;;;;;;4958010;28;20548;-82
2021/06/16 12:16:33;;;;;;;8.98;4.72;;;24.50;73.60;;;;;;4962263;28;20221;-83
2021/06/16 12:19:15;;;;;;;7.10;4.47;;;24.50;73.20;;;;;;4971441;28;20207;-83
2021/06/16 12:22:00;;;;;;;8.43;5.05;;;24.50;73.00;;;;;;4970918;28;20298;-83
2021/06/16 12:24:31;;;;;;;7.50;4.55;;;24.70;72.90;;;;;;4966843;28;20720;-83
2021/06/16 12:27:18;;;;;;;8.27;4.90;;;24.70;73.20;;;;;;4964555;28;20322;-83
2021/06/16 12:29:49;;;;;;;4.63;4.20;;;24.70;72.80;;;;;;4972140;28;20201;-83
2021/06/16 12:32:30;;;;;;;6.00;4.97;;;24.80;73.10;;;;;;4975432;28;20247;-84
2021/06/16 12:35:10;;;;;;;6.88;5.10;;;24.80;73.10;;;;;;4960768;28;20226;-84
2021/06/16 12:37:52;;;;;;;5.47;4.45;;;24.80;72.90;;;;;;4993706;28;20200;-87
2021/06/16 12:40:33;;;;;;;6.78;4.68;;;25.00;72.90;;;;;;5003703;28;20713;-83
2021/06/16 12:43:04;;;;;;;5.30;4.80;;;25.30;73.00;;;;;;4995576;28;20540;-83
2021/06/16 12:45:41;;;;;;;5.60;4.80;;;25.50;73.30;;;;;;4998283;28;20207;-84
2021/06/16 12:48:28;;;;;;;8.80;4.60;;;25.30;72.70;;;;;;4986742;28;20228;-83
2021/06/16 12:50:59;;;;;;;5.20;4.70;;;25.10;72.90;;;;;;4979203;28;20376;-83
2021/06/16 12:53:30;;;;;;;7.70;4.97;;;24.70;73.20;;;;;;4989180;28;20882;-83
2021/06/16 12:56:02;;;;;;;7.55;5.05;;;24.70;73.00;;;;;;4972313;28;20203;-82
2021/06/16 12:58:45;;;;;;;7.00;4.75;;;25.10;72.70;;;;;;4985883;28;20204;-84
2021/06/16 13:01:19;;;;;;;9.45;4.80;;;25.40;72.90;;;;;;4982307;28;20567;-83
2021/06/16 13:03:50;;;;;;;7.40;4.70;;;26.00;73.20;;;;;;4987456;28;20242;-86
2021/06/16 13:06:19;;;;;;;9.13;5.13;;;26.40;72.80;;;;;;4984885;28;20203;-83
2021/06/16 13:08:59;;;;;;;5.88;5.07;;;26.60;71.70;;;;;;4977527;28;20506;-85